createdAt,value
2022-12-23T00:02:14.051Z,50.03
2022-12-23T00:05:17.123Z,48.45
2022-12-23T00:08:20.764Z,50.40
2022-12-23T00:11:27.114Z,50.22
2022-12-23T00:14:54.840Z,49.05
2022-12-23T00:17:57.868Z,49.08
2022-12-23T00:21:08.315Z,49.00
2022-12-23T00:24:12.203Z,48.58
2022-12-23T00:27:14.786Z,48.15
2022-12-23T00:30:20.194Z,49.78
2022-12-23T00:33:25.494Z,47.65
2022-12-23T00:36:30.076Z,46.78
2022-12-23T00:39:54.932Z,47.35
2022-12-23T00:42:59.582Z,45.83
2022-12-23T00:46:02.178Z,47.05
2022-12-23T00:49:24.242Z,46.55
2022-12-23T00:52:27.499Z,41.00
2022-12-23T00:55:30.723Z,43.42
2022-12-23T00:58:33.302Z,43.38
2022-12-23T01:01:55.245Z,44.47
2022-12-23T01:05:16.691Z,42.78
2022-12-23T01:08:19.492Z,38.38
2022-12-23T01:11:22.024Z,42.42
2022-12-23T01:14:25.189Z,40.88
2022-12-23T01:17:27.770Z,44.10
2022-12-23T01:20:40.811Z,41.90
2022-12-23T01:23:43.449Z,43.20
2022-12-23T01:30:30.994Z,40.45
2022-12-23T01:33:33.948Z,40.97
2022-12-23T01:36:36.672Z,42.83
2022-12-23T01:39:40.016Z,40.97
2022-12-23T01:42:46.662Z,42.28
2022-12-23T01:45:50.522Z,39.38
2022-12-23T01:48:53.902Z,39.63
2022-12-23T01:51:56.855Z,40.72
2022-12-23T01:54:59.427Z,38.03
2022-12-23T01:58:15.067Z,38.58
2022-12-23T02:01:36.454Z,37.50
2022-12-23T02:04:39.780Z,36.78
2022-12-23T02:08:02.629Z,37.92
2022-12-23T02:11:17.855Z,36.17
2022-12-23T02:14:40.085Z,37.97
2022-12-23T02:17:54.960Z,35.38
2022-12-23T02:21:33.719Z,34.50
2022-12-23T02:25:07.916Z,34.88
2022-12-23T02:28:13.214Z,34.80
2022-12-23T02:31:29.929Z,35.78
2022-12-23T02:34:35.593Z,36.00
2022-12-23T02:38:07.100Z,36.92
2022-12-23T02:44:45.085Z,37.53
2022-12-23T02:47:56.533Z,37.78
2022-12-23T02:51:01.596Z,41.05
2022-12-23T02:54:08.579Z,43.35
2022-12-23T02:57:18.125Z,41.42
2022-12-23T03:00:23.301Z,42.42
2022-12-23T03:03:27.202Z,43.15
2022-12-23T03:06:35.341Z,42.53
2022-12-23T03:09:55.897Z,43.20
2022-12-23T03:13:10.246Z,43.97
2022-12-23T03:16:23.482Z,44.15
2022-12-23T03:23:30.517Z,44.65
2022-12-23T03:26:57.167Z,43.83
2022-12-23T03:30:05.268Z,44.00
2022-12-23T03:36:57.376Z,43.70
2022-12-23T03:40:10.401Z,45.70
2022-12-23T03:43:21.099Z,45.40
2022-12-23T03:46:33.908Z,44.67
2022-12-23T03:57:02.397Z,48.13
2022-12-23T04:00:06.725Z,48.78
2022-12-23T04:03:26.884Z,51.42
2022-12-23T04:06:39.476Z,50.72
2022-12-23T04:09:43.482Z,49.97
2022-12-23T04:12:46.428Z,50.65
2022-12-23T04:15:49.337Z,48.97
2022-12-23T04:18:52.227Z,47.50
2022-12-23T04:21:57.064Z,46.40
2022-12-23T04:25:02.762Z,46.72
2022-12-23T04:28:05.691Z,46.00
2022-12-23T04:31:08.683Z,46.72
2022-12-23T04:34:14.524Z,46.33
2022-12-23T04:37:17.477Z,44.95
2022-12-23T04:43:42.000Z,42.90
2022-12-23T04:47:05.221Z,43.30
2022-12-23T04:50:08.540Z,43.47
2022-12-23T04:53:11.971Z,45.95
2022-12-23T04:56:15.963Z,42.67
2022-12-23T04:59:18.979Z,44.92
2022-12-23T05:02:33.752Z,49.55
2022-12-23T05:09:22.169Z,46.05
2022-12-23T05:23:33.111Z,41.20
2022-12-23T05:27:45.122Z,45.42
2022-12-23T05:31:10.800Z,42.35
2022-12-23T05:47:56.142Z,37.97
2022-12-23T05:54:45.409Z,34.45
2022-12-23T06:04:58.433Z,33.60
2022-12-23T06:11:53.363Z,33.45
2022-12-23T06:14:56.230Z,34.15
2022-12-23T06:21:44.848Z,35.90
2022-12-23T06:24:48.323Z,34.40
2022-12-23T06:27:51.787Z,33.03
2022-12-23T06:31:15.111Z,32.53
2022-12-23T06:37:58.061Z,35.38
2022-12-23T06:41:11.649Z,36.35
2022-12-23T06:44:14.550Z,33.20
2022-12-23T06:47:19.650Z,34.15
2022-12-23T06:50:22.669Z,33.92
2022-12-23T06:53:26.412Z,33.67
2022-12-23T06:56:29.204Z,32.42
2022-12-23T07:10:12.678Z,31.08
2022-12-23T07:13:15.825Z,30.42
2022-12-23T07:16:18.520Z,30.00
2022-12-23T07:19:21.521Z,32.50
2022-12-23T07:22:24.652Z,31.80
2022-12-23T07:25:31.126Z,31.00
2022-12-23T07:28:36.557Z,30.83
2022-12-23T07:32:03.971Z,30.17
2022-12-23T07:35:06.938Z,28.62
2022-12-23T07:38:10.054Z,27.83
2022-12-23T07:41:13.869Z,27.87
2022-12-23T07:44:17.170Z,27.55
2022-12-23T07:47:19.705Z,28.30
2022-12-23T07:57:45.334Z,26.70
2022-12-23T08:08:52.495Z,27.80
2022-12-23T08:11:55.293Z,27.98
2022-12-23T08:29:48.579Z,28.70
2022-12-23T08:32:51.527Z,30.10
2022-12-23T08:35:54.938Z,28.87
2022-12-23T08:39:00.480Z,29.02
2022-12-23T08:42:03.151Z,28.92
2022-12-23T08:45:09.488Z,28.67
2022-12-23T08:48:12.929Z,29.25
2022-12-23T08:51:17.839Z,28.52
2022-12-23T09:05:41.092Z,29.58
2022-12-23T09:28:06.203Z,31.02
2022-12-23T09:31:13.238Z,29.52
2022-12-23T09:34:15.788Z,30.20
2022-12-23T09:37:19.177Z,29.45
2022-12-23T09:40:23.453Z,32.90
2022-12-23T09:43:43.355Z,31.50
2022-12-23T09:46:58.763Z,33.05
2022-12-23T09:50:10.517Z,35.22
2022-12-23T09:53:30.295Z,32.22
2022-12-23T09:56:48.127Z,33.25
2022-12-23T10:00:02.987Z,33.08
2022-12-23T10:03:34.806Z,31.12
2022-12-23T10:06:39.583Z,30.75
2022-12-23T10:28:22.772Z,27.23
2022-12-23T12:58:24.555Z,32.22
2022-12-23T13:01:48.435Z,33.13
2022-12-23T13:05:29.212Z,32.58
2022-12-23T13:08:39.587Z,33.53
2022-12-23T13:11:59.637Z,33.45
2022-12-23T13:15:11.556Z,33.78
2022-12-23T13:18:29.341Z,31.77
2022-12-23T13:21:45.687Z,33.65
2022-12-23T13:24:59.727Z,32.25
2022-12-23T13:28:27.076Z,32.90
2022-12-23T13:32:00.039Z,34.58
2022-12-23T13:39:27.041Z,32.42
2022-12-23T13:42:38.395Z,33.42
2022-12-23T13:45:42.632Z,33.08
2022-12-23T13:56:27.221Z,33.97
2022-12-23T13:59:39.905Z,31.45
2022-12-23T14:02:50.241Z,31.60
2022-12-23T14:05:53.692Z,31.05
2022-12-23T14:08:56.437Z,33.00
2022-12-23T14:12:28.859Z,31.37
2022-12-23T14:16:14.581Z,32.33
2022-12-23T14:19:55.473Z,33.60
2022-12-23T14:23:19.960Z,32.90
2022-12-23T14:26:46.142Z,33.00
2022-12-23T14:29:51.860Z,31.23
2022-12-23T14:33:01.153Z,32.03
2022-12-23T14:36:24.851Z,33.60
2022-12-23T14:39:33.293Z,33.53
2022-12-23T14:42:40.977Z,29.92
2022-12-23T14:45:44.845Z,31.12
2022-12-23T14:48:59.575Z,31.87
2022-12-23T14:52:39.192Z,30.62
2022-12-23T14:55:46.795Z,31.27
2022-12-23T14:59:11.567Z,30.98
2022-12-23T15:02:20.321Z,30.52
2022-12-23T15:05:23.927Z,30.40
2022-12-23T15:08:39.349Z,32.17
2022-12-23T15:11:42.879Z,31.58
2022-12-23T15:14:51.955Z,31.42
2022-12-23T15:18:03.681Z,33.78
2022-12-23T15:21:12.472Z,32.38
2022-12-23T15:24:17.506Z,32.10
2022-12-23T15:27:29.796Z,32.53
2022-12-23T15:30:56.231Z,31.20
2022-12-23T15:34:07.809Z,30.67
2022-12-23T15:37:17.654Z,32.67
2022-12-23T15:40:31.940Z,33.83
2022-12-23T15:43:40.937Z,30.80
2022-12-23T15:46:44.411Z,31.48
2022-12-23T15:49:47.454Z,32.13
2022-12-23T15:52:53.937Z,30.80
2022-12-23T15:55:56.836Z,32.33
2022-12-23T15:59:02.237Z,32.05
2022-12-23T16:02:58.854Z,35.08
2022-12-23T16:05:48.298Z,32.30
